Main page
METAR-TAF:

METAR-TAF

Airports :

Stevens Point Municipal Airport

Stevens Point, Wisconsin, United States

latitude: 44-32-42N, longitude: 089-31-49W, elevation: 1109 ft

Current weather observation

The report was made 33 minutes ago, at 20:15 UTC
Wind 10 mph from the West with gusts up to 17 mph
Temperature 10°F
Humidity 39%
Pressure 30.63 in. Hg
Visibility: 10 miles
Clear sky

METAR: KSTE 202015Z AUTO 28009G15KT 10SM CLR M12/M23 A3063 RMK AO2 T11161235

Time: 14:48 (20:48 UTC)


TAF: missing

Weather observations and forecasts of more than 4000 airports (METAR and TAF reports).

The available stations are represented by yellow and red dots on the map.

Hover mouse over dot to see the name of the station.

Then click to see weather observations and forecasts.

To change the map : click on the green buttons with a black cross to zoom in, on the green button with a dash to zoom out, or on the green arrows for adjacent maps.


METAR-TAF: